Time;durP1;ratioP1;P1;durP2;ratioP2;P2;SDS_P1;SDS_P2;PMS_P1;PMS_P2;Temp;Humidity;BMP_temperature;BMP_pressure;BME280_temperature;BME280_humidity;BME280_pressure;Samples;Min_cycle;Max_cycle;Signal;HPM_P1;HPM_P2
2022/02/23 00:01:37;;;;;;;5.27;2.13;;;6.90;99.90;;;;;;5056675;28;20542;-71
2022/02/23 00:04:05;;;;;;;6.20;2.10;;;6.90;99.90;;;;;;5056381;28;20479;-70
2022/02/23 00:06:32;;;;;;;8.87;2.37;;;6.80;99.90;;;;;;5057300;28;20468;-72
2022/02/23 00:08:58;;;;;;;16.30;2.70;;;6.70;99.90;;;;;;5058236;28;20451;-72
2022/02/23 00:11:25;;;;;;;12.33;2.40;;;6.80;99.90;;;;;;5062369;28;20995;-72
2022/02/23 00:13:52;;;;;;;8.50;2.23;;;6.80;99.90;;;;;;5064022;28;20459;-70
2022/02/23 00:16:19;;;;;;;10.00;1.83;;;6.80;99.90;;;;;;5063544;28;20447;-72
2022/02/23 00:18:47;;;;;;;15.63;2.57;;;6.70;99.90;;;;;;5063559;28;20455;-71
2022/02/23 00:21:14;;;;;;;11.27;2.70;;;6.70;99.90;;;;;;5061224;28;20451;-71
2022/02/23 00:23:40;;;;;;;9.67;2.53;;;6.70;99.90;;;;;;5054627;28;20467;-71
2022/02/23 00:26:07;;;;;;;13.90;3.93;;;6.60;99.90;;;;;;5054397;28;20467;-72
2022/02/23 00:28:34;;;;;;;8.17;2.33;;;6.50;99.90;;;;;;5054491;28;20455;-70
2022/02/23 00:31:01;;;;;;;15.17;3.30;;;6.50;99.90;;;;;;5054469;28;20459;-71
2022/02/23 00:33:28;;;;;;;12.40;3.10;;;6.40;99.90;;;;;;5056079;28;20464;-71
2022/02/23 00:35:56;;;;;;;15.03;3.53;;;6.30;99.90;;;;;;5058092;28;20451;-71
2022/02/23 00:38:23;;;;;;;9.63;3.57;;;6.30;99.90;;;;;;5057782;28;20533;-72
2022/02/23 00:40:50;;;;;;;10.83;2.83;;;6.30;99.90;;;;;;5055576;28;20844;-71
2022/02/23 00:43:17;;;;;;;7.50;1.77;;;6.20;99.90;;;;;;5054942;28;20470;-72
2022/02/23 00:45:43;;;;;;;7.90;3.23;;;6.10;99.90;;;;;;5054259;28;20486;-72
2022/02/23 00:48:10;;;;;;;6.13;1.80;;;5.90;99.90;;;;;;5054103;28;20941;-72
2022/02/23 00:50:37;;;;;;;3.67;1.30;;;5.80;99.90;;;;;;5054291;28;20448;-71
2022/02/23 00:53:05;;;;;;;3.63;1.40;;;5.60;99.90;;;;;;5054085;28;20975;-71
2022/02/23 00:55:32;;;;;;;6.87;1.40;;;5.60;99.90;;;;;;5054421;28;20463;-71
2022/02/23 00:57:59;;;;;;;10.03;1.93;;;5.50;99.90;;;;;;5054259;28;20469;-71
2022/02/23 01:00:26;;;;;;;3.77;1.60;;;5.50;99.90;;;;;;5054361;28;20455;-71
2022/02/23 01:02:53;;;;;;;10.27;1.90;;;5.50;99.90;;;;;;5054373;28;20450;-71
2022/02/23 01:05:20;;;;;;;5.90;2.00;;;5.40;99.90;;;;;;5054408;28;20553;-72
2022/02/23 01:07:46;;;;;;;4.63;1.87;;;5.40;99.90;;;;;;5054021;28;20521;-71
2022/02/23 01:10:14;;;;;;;3.80;1.40;;;5.40;99.90;;;;;;5054400;28;20451;-72
2022/02/23 01:12:41;;;;;;;10.37;2.67;;;5.40;99.90;;;;;;5054063;28;20454;-71
2022/02/23 01:15:09;;;;;;;13.00;3.37;;;5.40;99.90;;;;;;5053938;28;20892;-72
2022/02/23 01:17:39;;;;;;;8.70;2.70;;;5.40;99.90;;;;;;5053828;28;20450;-71
2022/02/23 01:20:06;;;;;;;9.13;2.70;;;5.40;99.90;;;;;;5053957;28;20455;-72
2022/02/23 01:22:33;;;;;;;14.20;3.13;;;5.40;99.90;;;;;;5054202;28;20465;-72
2022/02/23 01:25:02;;;;;;;15.80;3.50;;;5.40;99.90;;;;;;5054034;28;20466;-72
2022/02/23 01:27:30;;;;;;;11.23;3.50;;;5.40;99.90;;;;;;5057011;28;20475;-72
2022/02/23 01:29:58;;;;;;;16.07;4.37;;;5.40;99.90;;;;;;5057520;28;20952;-72
2022/02/23 01:32:24;;;;;;;14.27;3.57;;;5.40;99.90;;;;;;5057674;28;20919;-70
2022/02/23 01:34:51;;;;;;;16.63;3.87;;;5.40;99.90;;;;;;5057901;28;20524;-72
2022/02/23 01:37:18;;;;;;;11.37;3.00;;;5.40;99.90;;;;;;5057420;28;20938;-71
2022/02/23 01:39:45;;;;;;;9.97;3.13;;;5.40;99.90;;;;;;5057311;28;20459;-71
2022/02/23 01:42:12;;;;;;;12.30;4.20;;;5.40;99.90;;;;;;5057220;28;20919;-71
2022/02/23 01:44:40;;;;;;;12.53;3.43;;;5.50;99.90;;;;;;5057219;28;20920;-71
2022/02/23 01:47:07;;;;;;;16.40;3.40;;;5.60;99.90;;;;;;5057498;28;20483;-71
2022/02/23 01:49:34;;;;;;;17.07;3.07;;;5.60;99.90;;;;;;5057500;28;20455;-70
2022/02/23 01:52:01;;;;;;;14.53;3.60;;;5.70;99.90;;;;;;5057072;28;20811;-71
2022/02/23 01:54:28;;;;;;;11.60;3.40;;;5.70;99.90;;;;;;5057336;28;20470;-70
2022/02/23 01:56:55;;;;;;;15.27;3.23;;;5.70;99.90;;;;;;5057201;28;20455;-71
2022/02/23 01:59:21;;;;;;;23.73;4.60;;;5.80;99.90;;;;;;5057213;28;20789;-71
2022/02/23 02:01:52;;;;;;;15.60;3.57;;;5.80;99.90;;;;;;5056748;28;20915;-71
2022/02/23 02:04:21;;;;;;;20.60;3.50;;;5.90;99.90;;;;;;5057323;28;20444;-72
2022/02/23 02:06:48;;;;;;;17.73;3.30;;;5.90;99.90;;;;;;5056729;28;20803;-71
2022/02/23 02:09:15;;;;;;;15.87;3.50;;;6.00;99.90;;;;;;5056976;28;20798;-71
2022/02/23 02:11:42;;;;;;;17.30;3.97;;;6.00;99.90;;;;;;5056920;28;20473;-71
2022/02/23 02:14:09;;;;;;;17.87;3.53;;;6.00;99.90;;;;;;5057126;28;20455;-71
2022/02/23 02:16:35;;;;;;;15.33;3.40;;;6.00;99.90;;;;;;5056799;28;20466;-71
2022/02/23 02:19:04;;;;;;;13.40;4.00;;;6.10;99.90;;;;;;5056750;28;20815;-71
2022/02/23 02:21:51;;;;;;;14.40;3.13;;;6.10;99.90;;;;;;5057049;28;20459;-71
2022/02/23 02:24:18;;;;;;;11.17;3.10;;;6.10;99.90;;;;;;5057516;28;20447;-71
2022/02/23 02:26:45;;;;;;;13.67;2.97;;;6.10;99.90;;;;;;5056779;28;20514;-71
2022/02/23 02:29:12;;;;;;;13.20;3.60;;;6.10;99.90;;;;;;5056894;28;20489;-72
2022/02/23 02:31:38;;;;;;;18.53;4.20;;;6.20;99.90;;;;;;5056775;28;20459;-71
2022/02/23 02:34:05;;;;;;;19.97;3.20;;;6.10;99.90;;;;;;5056378;28;20791;-70
2022/02/23 02:36:33;;;;;;;10.20;2.83;;;6.10;99.90;;;;;;5056275;28;20591;-71
2022/02/23 02:39:00;;;;;;;9.60;2.83;;;6.10;99.90;;;;;;5055328;28;20471;-71
2022/02/23 02:41:27;;;;;;;15.80;3.20;;;6.10;99.90;;;;;;5055910;28;20490;-71
2022/02/23 02:43:54;;;;;;;16.97;2.47;;;6.10;99.90;;;;;;5056593;28;20463;-71
2022/02/23 02:46:20;;;;;;;15.93;3.10;;;6.10;99.90;;;;;;5056631;28;20479;-70
2022/02/23 02:48:47;;;;;;;18.80;4.10;;;6.10;99.90;;;;;;5056923;28;20466;-70
2022/02/23 02:51:14;;;;;;;12.30;3.40;;;6.10;99.90;;;;;;5056480;28;20459;-72
2022/02/23 02:53:42;;;;;;;14.10;4.17;;;6.00;99.90;;;;;;5056377;28;20907;-71
2022/02/23 02:56:09;;;;;;;13.20;3.00;;;6.00;99.90;;;;;;5056258;28;20496;-71
2022/02/23 02:58:35;;;;;;;21.13;3.20;;;6.00;99.90;;;;;;5056172;28;20455;-70
2022/02/23 03:01:02;;;;;;;14.53;2.87;;;6.00;99.90;;;;;;5055959;28;20465;-70
2022/02/23 03:03:29;;;;;;;12.03;3.30;;;6.00;99.90;;;;;;5055986;28;20474;-69
2022/02/23 03:05:56;;;;;;;14.67;3.03;;;6.00;99.90;;;;;;5058427;28;20461;-69
2022/02/23 03:08:24;;;;;;;7.20;3.30;;;6.00;99.90;;;;;;5061955;28;20497;-69
2022/02/23 03:10:52;;;;;;;16.70;3.00;;;6.00;99.90;;;;;;5059601;28;20908;-69
2022/02/23 03:13:19;;;;;;;14.93;3.70;;;6.00;99.90;;;;;;5059452;28;20516;-69
2022/02/23 03:15:46;;;;;;;12.17;2.87;;;6.00;99.90;;;;;;5059655;28;20478;-69
2022/02/23 03:18:13;;;;;;;16.93;2.70;;;6.00;99.90;;;;;;5060141;28;20502;-70
2022/02/23 03:20:39;;;;;;;13.43;3.13;;;5.90;99.90;;;;;;5058462;28;20494;-69
2022/02/23 03:23:06;;;;;;;14.03;2.80;;;5.90;99.90;;;;;;5059391;28;20471;-70
2022/02/23 03:25:33;;;;;;;17.47;3.37;;;6.00;99.90;;;;;;5060053;28;20469;-70
2022/02/23 03:28:04;;;;;;;9.73;2.50;;;6.00;99.90;;;;;;5056574;28;20479;-70
2022/02/23 03:30:31;;;;;;;14.43;2.83;;;5.90;99.90;;;;;;5056962;28;20436;-70
2022/02/23 03:33:00;;;;;;;15.57;3.80;;;5.90;99.90;;;;;;5056397;28;20458;-70
2022/02/23 03:35:28;;;;;;;10.07;2.83;;;5.90;99.90;;;;;;5055362;28;20474;-70
2022/02/23 03:37:55;;;;;;;15.93;3.90;;;5.90;99.90;;;;;;5055206;28;20451;-70
2022/02/23 03:40:22;;;;;;;9.10;2.63;;;5.90;99.90;;;;;;5055637;28;20556;-70
2022/02/23 03:42:49;;;;;;;7.00;2.67;;;5.80;99.90;;;;;;5055326;28;20448;-70
2022/02/23 03:45:17;;;;;;;21.00;3.60;;;5.90;99.90;;;;;;5055247;28;20455;-70
2022/02/23 03:47:44;;;;;;;12.73;2.80;;;5.90;99.90;;;;;;5055232;28;20493;-70
2022/02/23 03:50:11;;;;;;;9.43;2.73;;;5.90;99.90;;;;;;5055995;28;20466;-70
2022/02/23 03:52:38;;;;;;;12.83;2.50;;;6.00;99.90;;;;;;5056302;28;20542;-70
2022/02/23 03:55:06;;;;;;;10.07;2.60;;;6.00;99.90;;;;;;5055773;28;20463;-70
2022/02/23 03:57:33;;;;;;;11.90;2.87;;;6.00;99.90;;;;;;5055287;28;20450;-70
2022/02/23 03:59:59;;;;;;;14.37;2.23;;;6.00;99.90;;;;;;5055545;28;20463;-70
2022/02/23 04:02:28;;;;;;;5.63;2.50;;;6.00;99.90;;;;;;5054786;28;20524;-70
2022/02/23 04:04:54;;;;;;;11.63;3.00;;;6.00;99.90;;;;;;5055003;28;20454;-69
2022/02/23 04:07:21;;;;;;;11.37;3.30;;;6.00;99.90;;;;;;5057710;28;20947;-69
2022/02/23 04:09:48;;;;;;;9.57;3.20;;;6.00;99.90;;;;;;5058581;28;20473;-70
2022/02/23 04:12:15;;;;;;;15.03;2.80;;;6.00;99.90;;;;;;5057004;28;20795;-70
2022/02/23 04:14:42;;;;;;;9.37;2.53;;;5.90;99.90;;;;;;5054783;28;20459;-71
2022/02/23 04:17:09;;;;;;;8.20;2.37;;;5.80;99.90;;;;;;5054588;28;20448;-69
2022/02/23 04:19:37;;;;;;;9.63;2.43;;;5.70;99.90;;;;;;5054718;28;20466;-70
2022/02/23 04:22:05;;;;;;;6.57;2.10;;;5.70;99.90;;;;;;5054653;28;20459;-70
2022/02/23 04:24:32;;;;;;;6.13;2.13;;;5.60;99.90;;;;;;5054446;28;20971;-69
2022/02/23 04:27:00;;;;;;;6.00;1.83;;;5.60;99.90;;;;;;5054216;28;20951;-71
2022/02/23 04:29:26;;;;;;;6.63;3.20;;;5.60;99.90;;;;;;5054487;28;20498;-70
2022/02/23 04:31:53;;;;;;;8.10;2.23;;;5.50;99.90;;;;;;5054390;28;20459;-69
2022/02/23 04:34:20;;;;;;;4.73;2.13;;;5.50;99.90;;;;;;5054680;28;20455;-70
2022/02/23 04:36:49;;;;;;;7.90;2.30;;;5.50;99.90;;;;;;5054554;28;20459;-70
2022/02/23 04:39:16;;;;;;;8.00;1.83;;;5.40;99.90;;;;;;5054253;28;20924;-70
2022/02/23 04:41:43;;;;;;;11.03;2.33;;;5.30;99.90;;;;;;5054107;28;20822;-69
2022/02/23 04:44:09;;;;;;;10.07;2.60;;;5.30;99.90;;;;;;5054281;28;20892;-70
2022/02/23 04:46:37;;;;;;;6.67;2.33;;;5.20;99.90;;;;;;5054140;28;20451;-70
2022/02/23 04:49:04;;;;;;;9.17;2.33;;;5.20;99.90;;;;;;5054221;28;20469;-70
2022/02/23 04:51:31;;;;;;;5.93;1.80;;;5.30;99.90;;;;;;5054415;28;20460;-70
2022/02/23 04:54:00;;;;;;;9.40;3.00;;;5.30;99.90;;;;;;5054451;28;20794;-70
2022/02/23 04:56:27;;;;;;;28.40;4.33;;;5.30;99.90;;;;;;5054312;28;20463;-70
2022/02/23 04:58:54;;;;;;;13.80;3.73;;;5.20;99.90;;;;;;5054321;28;20451;-70
2022/02/23 05:01:23;;;;;;;13.70;3.40;;;5.20;99.90;;;;;;5055289;28;20900;-72
2022/02/23 05:03:49;;;;;;;18.23;3.97;;;5.30;99.90;;;;;;5058120;28;20447;-71
2022/02/23 05:06:16;;;;;;;18.60;3.83;;;5.20;99.90;;;;;;5058170;28;20459;-70
2022/02/23 05:08:43;;;;;;;17.90;3.07;;;5.30;99.90;;;;;;5057929;28;20497;-71
2022/02/23 05:11:11;;;;;;;12.30;3.33;;;5.30;99.90;;;;;;5058060;28;20481;-70
2022/02/23 05:13:38;;;;;;;20.63;3.50;;;5.30;99.90;;;;;;5057683;28;20923;-70
2022/02/23 05:16:05;;;;;;;13.10;3.40;;;5.30;99.90;;;;;;5057901;28;20520;-71
2022/02/23 05:18:32;;;;;;;18.37;4.40;;;5.40;99.90;;;;;;5057934;28;20451;-70
2022/02/23 05:21:01;;;;;;;27.70;4.07;;;5.40;99.90;;;;;;5057998;28;20501;-70
2022/02/23 05:23:28;;;;;;;11.80;3.20;;;5.50;99.90;;;;;;5057578;28;20466;-70
2022/02/23 05:25:56;;;;;;;21.37;4.17;;;5.50;99.90;;;;;;5057859;28;20459;-70
2022/02/23 05:28:25;;;;;;;23.20;4.23;;;5.50;99.90;;;;;;5057144;28;20478;-70
2022/02/23 05:30:52;;;;;;;35.17;5.10;;;5.50;99.90;;;;;;5057406;28;20521;-70
2022/02/23 05:33:19;;;;;;;14.53;3.77;;;5.50;99.90;;;;;;5057677;28;20467;-70
2022/02/23 05:35:46;;;;;;;10.90;3.40;;;5.50;99.90;;;;;;5057924;28;20458;-70
2022/02/23 05:38:13;;;;;;;19.07;3.50;;;5.50;99.90;;;;;;5057656;28;20482;-70
2022/02/23 05:40:39;;;;;;;13.77;3.13;;;5.60;99.90;;;;;;5058701;28;20483;-71
2022/02/23 05:43:06;;;;;;;13.30;3.27;;;5.60;99.90;;;;;;5057478;28;20478;-71
2022/02/23 05:45:34;;;;;;;11.10;3.77;;;5.60;99.90;;;;;;5057194;28;20469;-71
2022/02/23 05:48:01;;;;;;;16.40;3.83;;;5.60;99.90;;;;;;5057158;28;20478;-71
2022/02/23 05:50:28;;;;;;;19.10;5.10;;;5.60;99.90;;;;;;5057360;28;20455;-72
2022/02/23 05:52:55;;;;;;;9.03;3.40;;;5.60;99.90;;;;;;5057185;28;20458;-72
2022/02/23 05:55:21;;;;;;;23.30;4.30;;;5.60;99.90;;;;;;5056961;28;20455;-71
2022/02/23 05:57:48;;;;;;;14.57;3.43;;;5.60;99.90;;;;;;5057511;28;20466;-72
2022/02/23 06:00:16;;;;;;;16.07;4.90;;;5.60;99.90;;;;;;5057593;28;20455;-72
2022/02/23 06:02:44;;;;;;;8.13;3.17;;;5.60;99.90;;;;;;5057112;28;20895;-71
2022/02/23 06:05:11;;;;;;;17.57;3.73;;;5.60;99.90;;;;;;5057258;28;20470;-71
2022/02/23 06:07:37;;;;;;;13.20;3.57;;;5.60;99.90;;;;;;5057208;28;20487;-73
2022/02/23 06:10:05;;;;;;;10.43;3.50;;;5.60;99.90;;;;;;5057447;28;20466;-71
2022/02/23 06:12:32;;;;;;;15.73;4.20;;;5.60;99.90;;;;;;5058389;28;20483;-72
2022/02/23 06:14:59;;;;;;;12.23;3.57;;;5.70;99.90;;;;;;5057831;28;20463;-70
2022/02/23 06:17:26;;;;;;;16.67;4.20;;;5.70;99.90;;;;;;5058025;28;20458;-72
2022/02/23 06:19:54;;;;;;;14.90;4.40;;;5.70;99.90;;;;;;5058415;28;20461;-71
2022/02/23 06:22:21;;;;;;;15.30;3.80;;;5.70;99.90;;;;;;5057788;28;20950;-70
2022/02/23 06:24:47;;;;;;;11.50;3.47;;;5.70;99.90;;;;;;5056731;28;20470;-71
2022/02/23 06:27:17;;;;;;;17.37;5.30;;;5.80;99.90;;;;;;5056629;28;20462;-72
2022/02/23 06:29:43;;;;;;;17.33;3.40;;;5.70;99.90;;;;;;5056737;28;20810;-71
2022/02/23 06:32:10;;;;;;;13.50;3.50;;;5.80;99.90;;;;;;5056386;28;20536;-71
2022/02/23 06:34:37;;;;;;;14.63;3.87;;;5.80;99.90;;;;;;5056911;28;20463;-71
2022/02/23 06:37:06;;;;;;;8.67;3.50;;;5.80;99.90;;;;;;5056483;28;20459;-71
2022/02/23 06:39:35;;;;;;;17.43;5.37;;;5.80;99.90;;;;;;5055952;28;20466;-71
2022/02/23 06:42:03;;;;;;;20.13;4.30;;;5.80;99.90;;;;;;5056244;28;20919;-71
2022/02/23 06:44:31;;;;;;;15.13;3.60;;;5.80;99.90;;;;;;5056475;28;20451;-72
2022/02/23 06:46:59;;;;;;;11.30;3.57;;;5.80;99.90;;;;;;5056056;28;20455;-71
2022/02/23 06:49:26;;;;;;;13.77;4.10;;;5.80;99.90;;;;;;5056153;28;20970;-72
2022/02/23 06:51:58;;;;;;;14.73;3.93;;;5.80;99.90;;;;;;5055883;28;20460;-73
2022/02/23 06:54:28;;;;;;;11.20;3.83;;;5.80;99.90;;;;;;5055798;28;20455;-72
2022/02/23 06:56:55;;;;;;;14.90;3.73;;;5.90;99.90;;;;;;5056014;28;20440;-72
2022/02/23 06:59:22;;;;;;;14.87;3.93;;;5.80;99.90;;;;;;5056020;28;20512;-71
2022/02/23 07:01:49;;;;;;;16.40;3.57;;;5.90;99.90;;;;;;5056997;28;20487;-70
2022/02/23 07:04:16;;;;;;;13.73;3.50;;;5.80;99.90;;;;;;5057173;28;20566;-71
2022/02/23 07:06:43;;;;;;;18.20;3.50;;;5.80;99.90;;;;;;5056063;28;20455;-72
2022/02/23 07:09:10;;;;;;;17.60;3.80;;;5.80;99.90;;;;;;5059051;28;20505;-71
2022/02/23 07:11:39;;;;;;;14.20;3.93;;;5.80;99.90;;;;;;5058407;28;20459;-71
2022/02/23 07:14:08;;;;;;;13.23;3.20;;;5.80;99.90;;;;;;5057837;28;20911;-71
2022/02/23 07:16:35;;;;;;;17.83;3.53;;;5.80;99.90;;;;;;5058552;28;20459;-71
2022/02/23 07:19:02;;;;;;;12.50;3.30;;;5.80;99.90;;;;;;5058483;28;20520;-71
2022/02/23 07:21:29;;;;;;;19.83;3.40;;;5.90;99.90;;;;;;5058768;28;20455;-71
2022/02/23 07:23:56;;;;;;;13.80;3.50;;;5.80;99.90;;;;;;5058485;28;20947;-71
2022/02/23 07:26:23;;;;;;;19.60;3.87;;;5.80;99.90;;;;;;5058654;28;20454;-71
2022/02/23 07:28:51;;;;;;;13.33;2.37;;;5.90;99.90;;;;;;5058319;28;20979;-71
2022/02/23 07:31:18;;;;;;;15.60;3.63;;;5.90;99.90;;;;;;5057983;28;20460;-71
2022/02/23 07:33:46;;;;;;;11.60;3.67;;;5.90;99.90;;;;;;5058415;28;20460;-72
2022/02/23 07:36:14;;;;;;;9.30;3.60;;;5.90;99.90;;;;;;5058828;28;20467;-71
2022/02/23 07:38:42;;;;;;;21.73;3.80;;;6.00;99.90;;;;;;5061683;28;20447;-71
2022/02/23 07:41:11;;;;;;;13.53;3.33;;;6.00;99.90;;;;;;5061702;28;20511;-71
2022/02/23 07:43:37;;;;;;;13.23;3.87;;;6.00;99.90;;;;;;5058745;28;20447;-71
2022/02/23 07:46:06;;;;;;;15.30;3.27;;;6.10;99.90;;;;;;5058171;28;20838;-71
2022/02/23 07:48:33;;;;;;;16.07;3.33;;;6.10;99.90;;;;;;5057534;28;20575;-71
2022/02/23 07:51:03;;;;;;;14.23;3.47;;;6.10;99.90;;;;;;5058956;28;20455;-71
2022/02/23 07:53:30;;;;;;;19.10;4.70;;;6.10;99.90;;;;;;5057824;28;20459;-70
2022/02/23 07:55:56;;;;;;;15.07;4.27;;;6.20;99.90;;;;;;5058605;28;20455;-70
2022/02/23 07:58:23;;;;;;;15.87;3.97;;;6.20;99.90;;;;;;5059673;28;20452;-71
2022/02/23 08:00:50;;;;;;;9.87;3.20;;;6.20;99.90;;;;;;5060743;28;20796;-71
2022/02/23 08:03:18;;;;;;;13.40;3.33;;;6.30;99.90;;;;;;5059870;28;20459;-70
2022/02/23 08:05:45;;;;;;;20.37;3.90;;;6.40;99.90;;;;;;5059467;28;20785;-71
2022/02/23 08:08:13;;;;;;;13.50;2.90;;;6.50;99.90;;;;;;5058556;28;20541;-70
2022/02/23 08:10:40;;;;;;;14.00;4.10;;;6.50;99.90;;;;;;5055520;28;20545;-69
2022/02/23 08:13:07;;;;;;;16.20;4.07;;;6.60;99.90;;;;;;5054441;28;20493;-69
2022/02/23 08:21:04;;;;;;;9.60;2.73;;;6.70;99.90;;;;;;5054215;28;20442;-70
2022/02/23 08:23:31;;;;;;;13.10;3.83;;;6.70;99.90;;;;;;5054576;28;20463;-70
2022/02/23 08:25:58;;;;;;;13.80;2.83;;;6.80;99.90;;;;;;5054206;28;20474;-71
2022/02/23 08:28:25;;;;;;;15.47;3.77;;;6.80;99.90;;;;;;5054051;28;20962;-70
2022/02/23 08:30:51;;;;;;;13.67;3.47;;;6.90;99.90;;;;;;5054323;28;20793;-71
2022/02/23 08:33:19;;;;;;;14.53;3.00;;;6.90;99.90;;;;;;5055199;28;20497;-72
2022/02/23 08:35:47;;;;;;;12.47;2.77;;;7.00;99.90;;;;;;5056272;28;20455;-72
2022/02/23 08:38:14;;;;;;;16.30;4.30;;;7.00;99.90;;;;;;5060227;28;20451;-71
2022/02/23 08:40:42;;;;;;;16.57;2.80;;;7.00;99.90;;;;;;5060986;28;20977;-71
2022/02/23 08:43:09;;;;;;;17.30;4.07;;;7.00;99.90;;;;;;5060515;28;20481;-71
2022/02/23 08:45:36;;;;;;;12.67;3.07;;;7.10;99.90;;;;;;5060919;28;20470;-72
2022/02/23 08:48:03;;;;;;;14.53;3.37;;;7.10;99.90;;;;;;5060063;28;20492;-73
2022/02/23 08:53:53;;;;;;;9.13;3.07;;;7.00;99.90;;;;;;5058128;28;20395;-70
2022/02/23 08:56:20;;;;;;;14.30;3.60;;;7.00;99.90;;;;;;5058819;28;20450;-70
2022/02/23 08:58:46;;;;;;;13.70;3.10;;;7.10;99.90;;;;;;5058618;28;20458;-70
2022/02/23 09:01:13;;;;;;;13.63;2.93;;;7.10;99.90;;;;;;5058167;28;20516;-70
2022/02/23 09:03:40;;;;;;;7.50;2.20;;;7.20;99.90;;;;;;5058386;28;20520;-70
2022/02/23 09:06:07;;;;;;;13.23;2.73;;;7.30;99.90;;;;;;5058267;28;20462;-70
2022/02/23 09:08:34;;;;;;;21.20;5.10;;;7.30;99.90;;;;;;5058015;28;20672;-69
2022/02/23 09:11:02;;;;;;;16.13;3.80;;;7.40;99.90;;;;;;5058404;28;20455;-68
2022/02/23 09:13:29;;;;;;;11.00;3.03;;;7.50;99.90;;;;;;5058420;28;20486;-69
2022/02/23 09:15:56;;;;;;;8.57;2.70;;;7.60;99.90;;;;;;5058138;28;20463;-69
2022/02/23 09:18:22;;;;;;;10.27;3.37;;;7.70;99.90;;;;;;5057733;28;20788;-70
2022/02/23 09:20:49;;;;;;;8.00;3.00;;;7.80;99.90;;;;;;5057582;28;20470;-70
2022/02/23 09:23:16;;;;;;;8.43;2.43;;;7.80;99.90;;;;;;5057733;28;20458;-72
2022/02/23 09:25:43;;;;;;;7.10;2.63;;;7.90;99.90;;;;;;5057705;28;20469;-71
2022/02/23 09:28:11;;;;;;;9.83;2.93;;;7.90;99.90;;;;;;5057721;28;20935;-71
2022/02/23 09:30:37;;;;;;;8.47;2.13;;;8.00;99.90;;;;;;5057752;28;20466;-71
2022/02/23 09:33:04;;;;;;;8.20;2.40;;;8.00;99.90;;;;;;5057605;28;20531;-71
2022/02/23 09:35:31;;;;;;;9.10;3.23;;;8.10;99.90;;;;;;5057632;28;20470;-70
2022/02/23 09:37:57;;;;;;;11.33;2.60;;;8.20;99.90;;;;;;5057687;28;20734;-71
2022/02/23 09:40:25;;;;;;;13.93;3.67;;;8.30;99.90;;;;;;5056795;28;20478;-71
2022/02/23 09:42:52;;;;;;;8.67;2.67;;;8.30;99.90;;;;;;5056316;28;20932;-71
2022/02/23 09:45:20;;;;;;;9.73;2.50;;;8.20;99.90;;;;;;5056400;28;20487;-71
2022/02/23 09:47:47;;;;;;;9.50;2.43;;;8.30;99.90;;;;;;5055465;28;20939;-71
2022/02/23 09:50:20;;;;;;;12.40;2.67;;;8.30;99.90;;;;;;5055189;28;20635;-71
2022/02/23 09:52:47;;;;;;;12.83;2.73;;;8.30;99.90;;;;;;5055006;28;20454;-71
2022/02/23 09:55:15;;;;;;;9.87;2.70;;;8.30;99.90;;;;;;5054908;28;20939;-71
2022/02/23 09:57:42;;;;;;;12.50;3.50;;;8.30;99.90;;;;;;5055126;28;20458;-71
2022/02/23 10:00:11;;;;;;;12.27;2.57;;;8.30;99.90;;;;;;5054765;28;20493;-71
2022/02/23 10:02:39;;;;;;;7.77;2.50;;;8.30;99.90;;;;;;5054932;28;20459;-71
2022/02/23 10:05:07;;;;;;;8.17;2.80;;;8.30;99.90;;;;;;5055073;28;20466;-71
2022/02/23 10:07:38;;;;;;;11.40;3.00;;;8.30;99.90;;;;;;5055232;28;20455;-71
2022/02/23 10:10:08;;;;;;;13.90;2.47;;;8.30;99.90;;;;;;5054863;28;20463;-71
2022/02/23 10:12:36;;;;;;;9.07;2.77;;;8.20;99.90;;;;;;5054800;28;20459;-72
2022/02/23 10:15:12;;;;;;;9.53;2.77;;;8.30;99.90;;;;;;5054798;28;20553;-72
2022/02/23 10:17:43;;;;;;;9.50;2.77;;;8.40;99.90;;;;;;5055013;28;20485;-71
2022/02/23 10:20:21;;;;;;;9.00;2.60;;;8.40;99.90;;;;;;5054678;28;20450;-72
2022/02/23 10:22:49;;;;;;;8.60;2.33;;;8.40;99.90;;;;;;5055899;28;20486;-72
2022/02/23 10:25:22;;;;;;;16.90;4.37;;;8.40;99.90;;;;;;5055013;28;20463;-71
2022/02/23 10:27:50;;;;;;;14.63;3.20;;;8.40;99.90;;;;;;5054414;28;20779;-71
2022/02/23 10:30:27;;;;;;;8.57;3.00;;;8.30;99.90;;;;;;5054573;28;20482;-70
2022/02/23 10:32:57;;;;;;;15.20;3.07;;;8.40;99.90;;;;;;5054168;28;20919;-71
2022/02/23 10:35:27;;;;;;;16.70;3.30;;;8.50;99.90;;;;;;5054455;28;20459;-71
2022/02/23 10:37:54;;;;;;;10.93;3.00;;;8.60;99.90;;;;;;5054259;28;20458;-71
2022/02/23 10:40:22;;;;;;;11.33;3.03;;;8.60;99.90;;;;;;5017843;28;1041487;-71
2022/02/23 10:42:49;;;;;;;12.87;2.50;;;8.60;99.90;;;;;;5055285;28;20512;-71
2022/02/23 10:45:18;;;;;;;8.10;2.67;;;8.60;99.90;;;;;;5055056;28;20470;-71
2022/02/23 10:47:48;;;;;;;7.90;2.17;;;8.60;99.90;;;;;;5054829;28;20459;-71
2022/02/23 10:50:20;;;;;;;7.60;2.40;;;8.60;99.90;;;;;;5055734;28;20478;-71
2022/02/23 10:52:55;;;;;;;7.50;2.00;;;8.70;99.90;;;;;;5055779;28;20530;-71
2022/02/23 10:55:23;;;;;;;8.37;2.07;;;8.70;99.90;;;;;;5056209;28;20489;-71
2022/02/23 10:57:54;;;;;;;11.17;4.07;;;8.60;99.90;;;;;;5056220;28;20764;-71
2022/02/23 11:00:23;;;;;;;6.50;2.17;;;8.70;99.90;;;;;;5055534;28;20436;-71
2022/02/23 11:02:50;;;;;;;6.80;2.10;;;8.70;99.90;;;;;;5057146;28;20455;-71
2022/02/23 11:05:23;;;;;;;9.47;2.80;;;8.60;99.90;;;;;;5057700;28;20450;-70
2022/02/23 11:07:50;;;;;;;21.40;3.37;;;8.60;99.90;;;;;;5056074;28;20443;-70
2022/02/23 11:10:18;;;;;;;15.10;3.10;;;8.60;99.90;;;;;;5056079;28;20562;-70
2022/02/23 11:12:46;;;;;;;11.07;2.57;;;8.60;99.90;;;;;;5055944;28;20569;-71
2022/02/23 11:15:14;;;;;;;15.90;2.97;;;8.60;99.90;;;;;;5055839;28;20455;-70
2022/02/23 11:17:41;;;;;;;14.57;2.70;;;8.70;99.90;;;;;;5055805;28;20466;-73
2022/02/23 11:20:10;;;;;;;18.30;3.43;;;8.80;99.90;;;;;;5055327;28;20535;-71
2022/02/23 11:22:39;;;;;;;6.77;2.93;;;8.90;99.90;;;;;;5055324;28;20482;-71
2022/02/23 11:25:07;;;;;;;16.90;3.33;;;9.10;99.90;;;;;;5055864;28;20931;-71
2022/02/23 11:27:36;;;;;;;6.40;2.10;;;9.30;99.90;;;;;;5055268;28;20461;-70
2022/02/23 11:30:08;;;;;;;9.50;2.73;;;9.40;99.90;;;;;;5055281;28;20475;-71
2022/02/23 11:32:41;;;;;;;7.50;2.30;;;9.30;99.90;;;;;;5055300;28;20832;-72
2022/02/23 11:35:08;;;;;;;13.07;2.50;;;9.20;99.90;;;;;;5055307;28;20425;-71
2022/02/23 11:37:36;;;;;;;6.13;2.53;;;9.00;99.90;;;;;;5055360;28;20515;-72
2022/02/23 11:40:07;;;;;;;10.63;2.73;;;9.00;99.90;;;;;;5055643;28;20947;-71
2022/02/23 11:42:35;;;;;;;14.03;2.67;;;8.90;99.90;;;;;;5055300;28;20454;-71
2022/02/23 11:45:13;;;;;;;6.50;3.30;;;8.80;99.90;;;;;;5055117;28;20466;-71
2022/02/23 11:47:47;;;;;;;10.03;3.33;;;8.80;99.90;;;;;;5055358;28;20516;-72
2022/02/23 11:53:41;;;;;;;7.20;2.10;;;9.00;99.90;;;;;;5055582;28;20430;-71
2022/02/23 11:56:31;;;;;;;8.37;2.37;;;9.20;99.90;;;;;;5054817;28;20935;-72
2022/02/23 12:02:10;;;;;;;9.70;2.53;;;9.30;99.90;;;;;;5054628;28;20562;-71
2022/02/23 12:04:47;;;;;;;9.40;3.07;;;9.30;99.90;;;;;;5055342;28;20446;-71
2022/02/23 12:07:14;;;;;;;12.10;1.90;;;9.40;99.90;;;;;;5054998;28;20477;-71
2022/02/23 12:10:18;;;;;;;9.03;2.70;;;9.60;99.90;;;;;;5054811;28;20805;-72
2022/02/23 12:12:47;;;;;;;4.83;2.30;;;9.80;99.90;;;;;;5055110;28;20470;-71
2022/02/23 12:15:26;;;;;;;6.77;2.07;;;10.50;99.90;;;;;;5055435;28;20459;-72
2022/02/23 12:17:58;;;;;;;8.33;1.90;;;11.10;99.90;;;;;;5055345;28;20843;-71
2022/02/23 12:20:50;;;;;;;10.07;2.20;;;11.10;99.90;;;;;;5055832;28;20508;-72
2022/02/23 12:23:37;;;;;;;13.83;1.67;;;11.20;99.90;;;;;;5054974;28;20455;-71
2022/02/23 12:26:17;;;;;;;9.80;2.37;;;11.80;99.90;;;;;;5055084;28;20838;-72
2022/02/23 12:28:47;;;;;;;5.60;1.83;;;12.30;99.90;;;;;;5054975;28;20451;-72
2022/02/23 12:31:16;;;;;;;7.27;2.20;;;12.70;99.90;;;;;;5054925;28;21090;-71
2022/02/23 12:33:44;;;;;;;5.20;2.00;;;13.10;99.90;;;;;;5054507;28;20477;-70
2022/02/23 12:36:14;;;;;;;6.53;2.10;;;13.70;99.90;;;;;;5054318;28;20519;-71
2022/02/23 12:38:44;;;;;;;10.00;2.60;;;14.00;99.90;;;;;;5053890;28;20931;-71
2022/02/23 12:41:16;;;;;;;5.13;2.13;;;13.70;99.90;;;;;;5054514;28;20475;-71
2022/02/23 12:43:42;;;;;;;5.80;2.13;;;13.70;99.90;;;;;;5054954;28;20462;-70
2022/02/23 12:46:11;;;;;;;5.77;2.00;;;14.10;99.90;;;;;;5054359;28;20474;-72
2022/02/23 12:48:38;;;;;;;5.27;2.00;;;14.40;99.90;;;;;;5054407;28;20521;-71
2022/02/23 12:51:07;;;;;;;5.87;2.13;;;14.00;99.90;;;;;;5054091;28;20483;-71
2022/02/23 12:53:36;;;;;;;3.60;1.80;;;14.00;99.90;;;;;;5055133;28;20459;-71
2022/02/23 12:56:15;;;;;;;7.60;2.30;;;13.70;99.90;;;;;;5055170;28;20458;-72
2022/02/23 12:58:42;;;;;;;9.87;2.77;;;13.10;99.90;;;;;;5054377;28;20439;-70
2022/02/23 13:01:18;;;;;;;6.90;2.20;;;12.40;99.90;;;;;;5054837;28;20455;-72
2022/02/23 13:03:44;;;;;;;6.27;2.17;;;12.10;99.90;;;;;;5061089;28;20459;-71
2022/02/23 13:06:11;;;;;;;8.40;2.13;;;12.00;99.90;;;;;;5059491;28;20462;-71
2022/02/23 13:08:38;;;;;;;6.37;2.43;;;12.50;99.90;;;;;;5059551;28;20550;-71
2022/02/23 13:11:05;;;;;;;9.20;2.20;;;13.10;99.90;;;;;;5059206;28;20497;-71